sensor_id;sensor_type;location;lat;lon;timestamp;P1;durP1;ratioP1;P2;durP2;ratioP2
66421;SDS011;53228;51.380;0.098;2022-09-24T00:01:46;6.30;;;1.88;;
66421;SDS011;53228;51.380;0.098;2022-09-24T00:04:14;3.67;;;1.85;;
66421;SDS011;53228;51.380;0.098;2022-09-24T00:06:43;4.28;;;1.63;;
66421;SDS011;53228;51.380;0.098;2022-09-24T00:11:41;7.20;;;2.00;;
66421;SDS011;53228;51.380;0.098;2022-09-24T00:14:12;4.95;;;2.90;;
66421;SDS011;53228;51.380;0.098;2022-09-24T00:16:40;4.15;;;2.10;;
66421;SDS011;53228;51.380;0.098;2022-09-24T00:19:10;4.68;;;2.03;;
66421;SDS011;53228;51.380;0.098;2022-09-24T00:21:40;4.50;;;2.08;;
66421;SDS011;53228;51.380;0.098;2022-09-24T00:24:10;6.90;;;2.30;;
66421;SDS011;53228;51.380;0.098;2022-09-24T00:27:03;2.95;;;1.85;;
66421;SDS011;53228;51.380;0.098;2022-09-24T00:29:32;8.68;;;3.67;;
66421;SDS011;53228;51.380;0.098;2022-09-24T00:32:02;7.18;;;2.22;;
66421;SDS011;53228;51.380;0.098;2022-09-24T00:34:31;4.82;;;2.13;;
66421;SDS011;53228;51.380;0.098;2022-09-24T00:36:59;6.57;;;2.00;;
66421;SDS011;53228;51.380;0.098;2022-09-24T00:39:26;5.22;;;1.98;;
66421;SDS011;53228;51.380;0.098;2022-09-24T00:41:54;9.55;;;2.33;;
66421;SDS011;53228;51.380;0.098;2022-09-24T00:47:19;8.32;;;2.85;;
66421;SDS011;53228;51.380;0.098;2022-09-24T00:49:49;6.85;;;2.13;;
66421;SDS011;53228;51.380;0.098;2022-09-24T00:52:18;4.93;;;2.30;;
66421;SDS011;53228;51.380;0.098;2022-09-24T00:54:45;5.20;;;1.92;;
66421;SDS011;53228;51.380;0.098;2022-09-24T00:57:14;6.60;;;2.67;;
66421;SDS011;53228;51.380;0.098;2022-09-24T00:59:41;7.45;;;2.42;;
66421;SDS011;53228;51.380;0.098;2022-09-24T01:02:10;4.57;;;2.20;;
66421;SDS011;53228;51.380;0.098;2022-09-24T01:04:38;7.03;;;2.40;;
66421;SDS011;53228;51.380;0.098;2022-09-24T01:07:06;13.05;;;2.30;;
66421;SDS011;53228;51.380;0.098;2022-09-24T01:09:34;9.45;;;2.40;;
66421;SDS011;53228;51.380;0.098;2022-09-24T01:15:10;4.00;;;2.08;;
66421;SDS011;53228;51.380;0.098;2022-09-24T01:28:36;5.30;;;2.63;;
66421;SDS011;53228;51.380;0.098;2022-09-24T01:31:22;7.45;;;2.72;;
66421;SDS011;53228;51.380;0.098;2022-09-24T01:33:58;10.65;;;2.40;;
66421;SDS011;53228;51.380;0.098;2022-09-24T01:36:34;7.45;;;3.00;;
66421;SDS011;53228;51.380;0.098;2022-09-24T01:39:05;8.43;;;3.38;;
66421;SDS011;53228;51.380;0.098;2022-09-24T01:41:34;14.82;;;3.00;;
66421;SDS011;53228;51.380;0.098;2022-09-24T01:46:36;10.57;;;2.72;;
66421;SDS011;53228;51.380;0.098;2022-09-24T01:49:06;6.38;;;2.50;;
66421;SDS011;53228;51.380;0.098;2022-09-24T01:51:41;7.10;;;2.45;;
66421;SDS011;53228;51.380;0.098;2022-09-24T01:54:15;9.90;;;3.33;;
66421;SDS011;53228;51.380;0.098;2022-09-24T01:56:52;8.40;;;2.40;;
66421;SDS011;53228;51.380;0.098;2022-09-24T01:59:53;9.48;;;2.80;;
66421;SDS011;53228;51.380;0.098;2022-09-24T02:02:41;9.77;;;2.78;;
66421;SDS011;53228;51.380;0.098;2022-09-24T02:05:27;8.52;;;3.03;;
66421;SDS011;53228;51.380;0.098;2022-09-24T02:10:53;9.35;;;2.85;;
66421;SDS011;53228;51.380;0.098;2022-09-24T02:13:30;5.55;;;2.92;;
66421;SDS011;53228;51.380;0.098;2022-09-24T02:16:07;6.88;;;2.72;;
66421;SDS011;53228;51.380;0.098;2022-09-24T02:18:39;14.43;;;3.08;;
66421;SDS011;53228;51.380;0.098;2022-09-24T02:21:09;7.10;;;2.97;;
66421;SDS011;53228;51.380;0.098;2022-09-24T02:23:40;9.20;;;3.13;;
66421;SDS011;53228;51.380;0.098;2022-09-24T02:26:30;6.03;;;2.50;;
66421;SDS011;53228;51.380;0.098;2022-09-24T02:28:57;7.50;;;2.75;;
66421;SDS011;53228;51.380;0.098;2022-09-24T02:31:33;7.55;;;3.00;;
66421;SDS011;53228;51.380;0.098;2022-09-24T02:34:13;10.93;;;3.28;;
66421;SDS011;53228;51.380;0.098;2022-09-24T02:36:51;6.53;;;3.20;;
66421;SDS011;53228;51.380;0.098;2022-09-24T02:39:20;7.85;;;3.30;;
66421;SDS011;53228;51.380;0.098;2022-09-24T02:41:48;9.77;;;3.60;;
66421;SDS011;53228;51.380;0.098;2022-09-24T02:44:18;9.35;;;4.20;;
66421;SDS011;53228;51.380;0.098;2022-09-24T02:46:46;11.70;;;5.35;;
66421;SDS011;53228;51.380;0.098;2022-09-24T02:49:15;13.50;;;5.72;;
66421;SDS011;53228;51.380;0.098;2022-09-24T02:51:43;15.18;;;7.03;;
66421;SDS011;53228;51.380;0.098;2022-09-24T02:54:11;10.02;;;5.10;;
66421;SDS011;53228;51.380;0.098;2022-09-24T02:56:39;17.02;;;6.57;;
66421;SDS011;53228;51.380;0.098;2022-09-24T02:59:07;19.67;;;6.78;;
66421;SDS011;53228;51.380;0.098;2022-09-24T03:01:35;21.13;;;7.80;;
66421;SDS011;53228;51.380;0.098;2022-09-24T03:04:02;19.23;;;7.00;;
66421;SDS011;53228;51.380;0.098;2022-09-24T03:06:31;15.88;;;7.63;;
66421;SDS011;53228;51.380;0.098;2022-09-24T03:08:59;15.75;;;7.10;;
66421;SDS011;53228;51.380;0.098;2022-09-24T03:11:29;14.80;;;7.47;;
66421;SDS011;53228;51.380;0.098;2022-09-24T03:13:58;14.02;;;6.63;;
66421;SDS011;53228;51.380;0.098;2022-09-24T03:16:25;22.25;;;7.25;;
66421;SDS011;53228;51.380;0.098;2022-09-24T03:18:53;17.67;;;6.90;;
66421;SDS011;53228;51.380;0.098;2022-09-24T03:21:21;22.83;;;7.47;;
66421;SDS011;53228;51.380;0.098;2022-09-24T03:23:49;20.50;;;7.25;;
66421;SDS011;53228;51.380;0.098;2022-09-24T03:26:17;19.58;;;7.50;;
66421;SDS011;53228;51.380;0.098;2022-09-24T03:28:44;17.15;;;5.43;;
66421;SDS011;53228;51.380;0.098;2022-09-24T03:31:12;25.55;;;9.27;;
66421;SDS011;53228;51.380;0.098;2022-09-24T03:33:43;20.48;;;8.02;;
66421;SDS011;53228;51.380;0.098;2022-09-24T03:38:42;20.02;;;7.45;;
66421;SDS011;53228;51.380;0.098;2022-09-24T03:41:11;17.90;;;7.05;;
66421;SDS011;53228;51.380;0.098;2022-09-24T03:43:39;22.15;;;7.28;;
66421;SDS011;53228;51.380;0.098;2022-09-24T03:46:08;24.85;;;8.60;;
66421;SDS011;53228;51.380;0.098;2022-09-24T03:48:38;18.70;;;6.63;;
66421;SDS011;53228;51.380;0.098;2022-09-24T03:51:08;17.40;;;6.45;;
66421;SDS011;53228;51.380;0.098;2022-09-24T03:53:40;15.80;;;6.97;;
66421;SDS011;53228;51.380;0.098;2022-09-24T03:56:08;14.73;;;6.35;;
66421;SDS011;53228;51.380;0.098;2022-09-24T03:58:38;16.38;;;6.97;;
66421;SDS011;53228;51.380;0.098;2022-09-24T04:01:06;14.10;;;6.05;;
66421;SDS011;53228;51.380;0.098;2022-09-24T04:03:35;13.57;;;6.18;;
66421;SDS011;53228;51.380;0.098;2022-09-24T04:06:03;16.65;;;5.93;;
66421;SDS011;53228;51.380;0.098;2022-09-24T04:08:31;16.98;;;5.82;;
66421;SDS011;53228;51.380;0.098;2022-09-24T04:10:59;14.23;;;5.97;;
66421;SDS011;53228;51.380;0.098;2022-09-24T04:13:27;14.57;;;6.00;;
66421;SDS011;53228;51.380;0.098;2022-09-24T04:15:54;11.73;;;5.68;;
66421;SDS011;53228;51.380;0.098;2022-09-24T04:18:27;14.15;;;6.22;;
66421;SDS011;53228;51.380;0.098;2022-09-24T04:20:58;12.07;;;5.40;;
66421;SDS011;53228;51.380;0.098;2022-09-24T04:23:26;15.05;;;5.05;;
66421;SDS011;53228;51.380;0.098;2022-09-24T04:25:57;8.13;;;4.32;;
66421;SDS011;53228;51.380;0.098;2022-09-24T04:28:28;16.95;;;5.25;;
66421;SDS011;53228;51.380;0.098;2022-09-24T04:30:57;14.50;;;5.40;;
66421;SDS011;53228;51.380;0.098;2022-09-24T04:33:25;17.67;;;5.45;;
66421;SDS011;53228;51.380;0.098;2022-09-24T04:35:52;13.65;;;5.15;;
66421;SDS011;53228;51.380;0.098;2022-09-24T04:38:20;15.77;;;6.28;;
66421;SDS011;53228;51.380;0.098;2022-09-24T04:40:48;14.70;;;6.47;;
66421;SDS011;53228;51.380;0.098;2022-09-24T04:43:16;16.58;;;6.50;;
66421;SDS011;53228;51.380;0.098;2022-09-24T04:45:45;14.10;;;5.85;;
66421;SDS011;53228;51.380;0.098;2022-09-24T04:48:13;9.80;;;5.22;;
66421;SDS011;53228;51.380;0.098;2022-09-24T04:50:40;20.00;;;6.53;;
66421;SDS011;53228;51.380;0.098;2022-09-24T04:53:13;13.80;;;6.15;;
66421;SDS011;53228;51.380;0.098;2022-09-24T04:55:40;18.13;;;6.20;;
66421;SDS011;53228;51.380;0.098;2022-09-24T04:58:08;10.45;;;5.55;;
66421;SDS011;53228;51.380;0.098;2022-09-24T05:00:36;13.98;;;6.22;;
66421;SDS011;53228;51.380;0.098;2022-09-24T05:03:04;15.68;;;5.75;;
66421;SDS011;53228;51.380;0.098;2022-09-24T05:05:32;14.70;;;6.03;;
66421;SDS011;53228;51.380;0.098;2022-09-24T05:08:00;12.63;;;5.65;;
66421;SDS011;53228;51.380;0.098;2022-09-24T05:10:28;12.82;;;6.40;;
66421;SDS011;53228;51.380;0.098;2022-09-24T05:12:58;16.70;;;5.97;;
66421;SDS011;53228;51.380;0.098;2022-09-24T05:15:25;14.38;;;6.40;;
66421;SDS011;53228;51.380;0.098;2022-09-24T05:17:53;14.32;;;6.25;;
66421;SDS011;53228;51.380;0.098;2022-09-24T05:20:20;12.68;;;6.15;;
66421;SDS011;53228;51.380;0.098;2022-09-24T05:22:48;21.35;;;6.00;;
66421;SDS011;53228;51.380;0.098;2022-09-24T05:25:17;14.15;;;6.40;;
66421;SDS011;53228;51.380;0.098;2022-09-24T05:27:46;13.10;;;5.97;;
66421;SDS011;53228;51.380;0.098;2022-09-24T05:30:15;11.63;;;5.78;;
66421;SDS011;53228;51.380;0.098;2022-09-24T05:32:44;9.50;;;5.70;;
66421;SDS011;53228;51.380;0.098;2022-09-24T05:35:15;11.05;;;5.60;;
66421;SDS011;53228;51.380;0.098;2022-09-24T05:37:43;14.23;;;5.70;;
66421;SDS011;53228;51.380;0.098;2022-09-24T05:40:12;14.68;;;4.95;;
66421;SDS011;53228;51.380;0.098;2022-09-24T05:43:01;13.65;;;5.20;;
66421;SDS011;53228;51.380;0.098;2022-09-24T05:45:30;12.30;;;4.72;;
66421;SDS011;53228;51.380;0.098;2022-09-24T05:47:58;8.68;;;4.43;;
66421;SDS011;53228;51.380;0.098;2022-09-24T05:50:26;10.02;;;4.80;;
66421;SDS011;53228;51.380;0.098;2022-09-24T05:52:54;9.55;;;4.40;;
66421;SDS011;53228;51.380;0.098;2022-09-24T05:55:22;13.35;;;5.32;;
66421;SDS011;53228;51.380;0.098;2022-09-24T05:57:53;10.38;;;4.85;;
66421;SDS011;53228;51.380;0.098;2022-09-24T06:00:21;12.50;;;4.28;;
66421;SDS011;53228;51.380;0.098;2022-09-24T06:02:49;13.27;;;4.45;;
66421;SDS011;53228;51.380;0.098;2022-09-24T06:05:16;13.93;;;4.68;;
66421;SDS011;53228;51.380;0.098;2022-09-24T06:07:44;13.07;;;4.25;;
66421;SDS011;53228;51.380;0.098;2022-09-24T06:10:12;8.23;;;4.13;;
66421;SDS011;53228;51.380;0.098;2022-09-24T06:12:39;7.35;;;3.95;;
66421;SDS011;53228;51.380;0.098;2022-09-24T06:15:07;9.48;;;4.35;;
66421;SDS011;53228;51.380;0.098;2022-09-24T06:17:35;9.98;;;4.50;;
66421;SDS011;53228;51.380;0.098;2022-09-24T06:20:03;8.80;;;4.32;;
66421;SDS011;53228;51.380;0.098;2022-09-24T06:22:31;10.88;;;4.38;;
66421;SDS011;53228;51.380;0.098;2022-09-24T06:24:59;13.43;;;4.70;;
66421;SDS011;53228;51.380;0.098;2022-09-24T06:27:26;14.95;;;4.55;;
66421;SDS011;53228;51.380;0.098;2022-09-24T06:29:54;10.38;;;4.63;;
66421;SDS011;53228;51.380;0.098;2022-09-24T06:32:22;10.95;;;5.30;;
66421;SDS011;53228;51.380;0.098;2022-09-24T06:34:50;11.93;;;5.43;;
66421;SDS011;53228;51.380;0.098;2022-09-24T06:37:24;17.15;;;5.30;;
66421;SDS011;53228;51.380;0.098;2022-09-24T06:39:52;9.90;;;4.93;;
66421;SDS011;53228;51.380;0.098;2022-09-24T06:42:19;12.40;;;5.82;;
66421;SDS011;53228;51.380;0.098;2022-09-24T06:44:47;10.20;;;5.30;;
66421;SDS011;53228;51.380;0.098;2022-09-24T06:47:15;9.85;;;5.13;;
66421;SDS011;53228;51.380;0.098;2022-09-24T06:49:42;11.85;;;5.45;;
66421;SDS011;53228;51.380;0.098;2022-09-24T06:52:10;11.35;;;5.00;;
66421;SDS011;53228;51.380;0.098;2022-09-24T06:54:38;12.98;;;5.63;;
66421;SDS011;53228;51.380;0.098;2022-09-24T06:57:06;10.32;;;4.68;;
66421;SDS011;53228;51.380;0.098;2022-09-24T06:59:33;11.18;;;5.00;;
66421;SDS011;53228;51.380;0.098;2022-09-24T07:02:01;11.73;;;6.18;;
66421;SDS011;53228;51.380;0.098;2022-09-24T07:04:28;14.20;;;5.57;;
66421;SDS011;53228;51.380;0.098;2022-09-24T07:06:56;11.23;;;5.60;;
66421;SDS011;53228;51.380;0.098;2022-09-24T07:09:42;16.63;;;5.93;;
66421;SDS011;53228;51.380;0.098;2022-09-24T07:12:10;17.50;;;6.28;;
66421;SDS011;53228;51.380;0.098;2022-09-24T07:14:38;12.43;;;5.88;;
66421;SDS011;53228;51.380;0.098;2022-09-24T07:17:05;14.32;;;4.95;;
66421;SDS011;53228;51.380;0.098;2022-09-24T07:19:33;10.93;;;5.60;;
66421;SDS011;53228;51.380;0.098;2022-09-24T07:22:01;10.25;;;5.70;;
66421;SDS011;53228;51.380;0.098;2022-09-24T07:24:28;13.63;;;5.80;;
66421;SDS011;53228;51.380;0.098;2022-09-24T07:26:56;13.82;;;5.75;;
66421;SDS011;53228;51.380;0.098;2022-09-24T07:29:24;9.60;;;5.55;;
66421;SDS011;53228;51.380;0.098;2022-09-24T07:31:52;19.88;;;7.00;;
66421;SDS011;53228;51.380;0.098;2022-09-24T07:34:19;15.77;;;6.72;;
66421;SDS011;53228;51.380;0.098;2022-09-24T07:36:47;17.00;;;6.90;;
66421;SDS011;53228;51.380;0.098;2022-09-24T07:39:14;16.65;;;5.93;;
66421;SDS011;53228;51.380;0.098;2022-09-24T07:41:42;11.05;;;6.13;;
66421;SDS011;53228;51.380;0.098;2022-09-24T07:44:10;11.30;;;6.05;;
66421;SDS011;53228;51.380;0.098;2022-09-24T07:46:38;13.13;;;5.97;;
66421;SDS011;53228;51.380;0.098;2022-09-24T07:49:06;12.15;;;5.95;;
66421;SDS011;53228;51.380;0.098;2022-09-24T07:51:33;16.23;;;6.15;;
66421;SDS011;53228;51.380;0.098;2022-09-24T07:54:01;12.18;;;5.75;;
66421;SDS011;53228;51.380;0.098;2022-09-24T07:56:29;12.95;;;6.72;;
66421;SDS011;53228;51.380;0.098;2022-09-24T07:58:58;16.73;;;6.65;;
66421;SDS011;53228;51.380;0.098;2022-09-24T08:01:25;14.38;;;6.60;;
66421;SDS011;53228;51.380;0.098;2022-09-24T08:03:53;10.60;;;5.80;;
66421;SDS011;53228;51.380;0.098;2022-09-24T08:06:21;12.27;;;6.18;;
66421;SDS011;53228;51.380;0.098;2022-09-24T08:08:49;14.05;;;5.88;;
66421;SDS011;53228;51.380;0.098;2022-09-24T08:11:19;13.35;;;5.93;;
66421;SDS011;53228;51.380;0.098;2022-09-24T08:13:47;14.10;;;5.78;;
66421;SDS011;53228;51.380;0.098;2022-09-24T08:16:15;12.40;;;5.32;;
66421;SDS011;53228;51.380;0.098;2022-09-24T08:18:43;13.02;;;6.55;;
66421;SDS011;53228;51.380;0.098;2022-09-24T08:21:11;16.08;;;6.82;;
66421;SDS011;53228;51.380;0.098;2022-09-24T08:23:39;12.85;;;6.80;;
66421;SDS011;53228;51.380;0.098;2022-09-24T08:26:08;13.32;;;6.80;;
66421;SDS011;53228;51.380;0.098;2022-09-24T08:28:37;15.13;;;7.22;;
66421;SDS011;53228;51.380;0.098;2022-09-24T08:31:09;14.05;;;6.95;;
66421;SDS011;53228;51.380;0.098;2022-09-24T08:36:06;17.98;;;8.48;;
66421;SDS011;53228;51.380;0.098;2022-09-24T08:38:35;15.25;;;7.53;;
66421;SDS011;53228;51.380;0.098;2022-09-24T08:41:06;12.95;;;7.07;;
66421;SDS011;53228;51.380;0.098;2022-09-24T08:44:04;18.00;;;7.43;;
66421;SDS011;53228;51.380;0.098;2022-09-24T08:46:48;14.15;;;7.85;;
66421;SDS011;53228;51.380;0.098;2022-09-24T08:49:41;15.15;;;6.82;;
66421;SDS011;53228;51.380;0.098;2022-09-24T08:54:55;15.82;;;7.88;;
66421;SDS011;53228;51.380;0.098;2022-09-24T08:57:31;14.90;;;7.50;;
66421;SDS011;53228;51.380;0.098;2022-09-24T09:00:11;12.70;;;7.15;;
66421;SDS011;53228;51.380;0.098;2022-09-24T09:10:33;13.68;;;7.25;;
66421;SDS011;53228;51.380;0.098;2022-09-24T09:13:20;14.45;;;6.93;;
66421;SDS011;53228;51.380;0.098;2022-09-24T09:18:37;13.20;;;5.38;;
66421;SDS011;53228;51.380;0.098;2022-09-24T09:26:54;11.73;;;5.05;;
66421;SDS011;53228;51.380;0.098;2022-09-24T09:29:22;10.23;;;4.68;;
66421;SDS011;53228;51.380;0.098;2022-09-24T09:37:42;14.13;;;5.18;;
66421;SDS011;53228;51.380;0.098;2022-09-24T09:43:10;6.18;;;4.30;;
66421;SDS011;53228;51.380;0.098;2022-09-24T09:48:55;9.60;;;4.60;;
66421;SDS011;53228;51.380;0.098;2022-09-24T09:51:41;6.03;;;4.25;;
66421;SDS011;53228;51.380;0.098;2022-09-24T09:54:10;8.63;;;4.13;;
66421;SDS011;53228;51.380;0.098;2022-09-24T09:56:42;8.02;;;2.97;;
66421;SDS011;53228;51.380;0.098;2022-09-24T09:59:19;7.50;;;3.15;;
66421;SDS011;53228;51.380;0.098;2022-09-24T10:01:55;10.55;;;3.53;;
66421;SDS011;53228;51.380;0.098;2022-09-24T10:09:42;6.28;;;2.70;;
66421;SDS011;53228;51.380;0.098;2022-09-24T10:14:41;4.60;;;2.35;;
66421;SDS011;53228;51.380;0.098;2022-09-24T10:17:14;7.30;;;2.53;;
66421;SDS011;53228;51.380;0.098;2022-09-24T10:19:44;2.85;;;2.00;;
66421;SDS011;53228;51.380;0.098;2022-09-24T10:22:18;9.00;;;2.25;;
66421;SDS011;53228;51.380;0.098;2022-09-24T10:24:51;3.35;;;2.00;;
66421;SDS011;53228;51.380;0.098;2022-09-24T10:27:34;6.70;;;1.73;;
66421;SDS011;53228;51.380;0.098;2022-09-24T10:30:12;3.53;;;1.63;;
66421;SDS011;53228;51.380;0.098;2022-09-24T10:33:01;3.70;;;1.70;;
66421;SDS011;53228;51.380;0.098;2022-09-24T10:38:03;1.70;;;1.55;;
66421;SDS011;53228;51.380;0.098;2022-09-24T10:40:42;4.05;;;1.60;;
66421;SDS011;53228;51.380;0.098;2022-09-24T10:43:15;2.92;;;1.70;;
66421;SDS011;53228;51.380;0.098;2022-09-24T10:46:03;6.82;;;1.83;;
66421;SDS011;53228;51.380;0.098;2022-09-24T10:51:56;2.40;;;1.10;;
66421;SDS011;53228;51.380;0.098;2022-09-24T10:54:32;2.80;;;1.50;;
66421;SDS011;53228;51.380;0.098;2022-09-24T10:57:36;2.90;;;1.25;;
66421;SDS011;53228;51.380;0.098;2022-09-24T11:00:10;4.20;;;1.33;;
66421;SDS011;53228;51.380;0.098;2022-09-24T11:02:57;2.72;;;1.05;;
66421;SDS011;53228;51.380;0.098;2022-09-24T11:05:34;6.10;;;1.95;;
66421;SDS011;53228;51.380;0.098;2022-09-24T11:08:14;2.80;;;1.33;;
66421;SDS011;53228;51.380;0.098;2022-09-24T11:30:55;1.98;;;0.90;;
66421;SDS011;53228;51.380;0.098;2022-09-24T11:55:58;4.32;;;1.05;;
66421;SDS011;53228;51.380;0.098;2022-09-24T11:58:41;3.25;;;0.90;;
66421;SDS011;53228;51.380;0.098;2022-09-24T12:01:20;3.55;;;1.02;;
66421;SDS011;53228;51.380;0.098;2022-09-24T12:04:10;2.15;;;0.90;;
66421;SDS011;53228;51.380;0.098;2022-09-24T12:06:56;2.45;;;0.77;;
66421;SDS011;53228;51.380;0.098;2022-09-24T12:10:02;2.08;;;0.63;;
66421;SDS011;53228;51.380;0.098;2022-09-24T12:12:42;2.30;;;1.38;;
66421;SDS011;53228;51.380;0.098;2022-09-24T12:15:14;3.05;;;0.80;;
66421;SDS011;53228;51.380;0.098;2022-09-24T12:20:22;2.28;;;0.50;;
66421;SDS011;53228;51.380;0.098;2022-09-24T12:23:13;3.15;;;0.70;;
66421;SDS011;53228;51.380;0.098;2022-09-24T12:25:45;1.60;;;0.70;;
66421;SDS011;53228;51.380;0.098;2022-09-24T12:28:16;1.35;;;0.57;;
66421;SDS011;53228;51.380;0.098;2022-09-24T12:31:16;1.27;;;0.47;;
66421;SDS011;53228;51.380;0.098;2022-09-24T12:34:23;4.28;;;0.68;;
66421;SDS011;53228;51.380;0.098;2022-09-24T12:37:28;2.67;;;1.00;;
66421;SDS011;53228;51.380;0.098;2022-09-24T16:19:27;0.50;;;0.40;;
66421;SDS011;53228;51.380;0.098;2022-09-24T16:21:55;0.60;;;0.40;;
66421;SDS011;53228;51.380;0.098;2022-09-24T16:24:23;1.33;;;0.40;;
66421;SDS011;53228;51.380;0.098;2022-09-24T16:26:50;0.80;;;0.45;;
66421;SDS011;53228;51.380;0.098;2022-09-24T16:29:18;0.75;;;0.40;;
66421;SDS011;53228;51.380;0.098;2022-09-24T16:31:45;3.30;;;0.47;;
66421;SDS011;53228;51.380;0.098;2022-09-24T16:34:15;0.82;;;0.20;;
66421;SDS011;53228;51.380;0.098;2022-09-24T16:36:43;0.50;;;0.40;;
66421;SDS011;53228;51.380;0.098;2022-09-24T16:39:10;1.27;;;0.30;;
66421;SDS011;53228;51.380;0.098;2022-09-24T16:41:38;0.45;;;0.38;;
66421;SDS011;53228;51.380;0.098;2022-09-24T16:44:06;1.75;;;0.85;;
66421;SDS011;53228;51.380;0.098;2022-09-24T16:46:33;0.88;;;0.20;;
66421;SDS011;53228;51.380;0.098;2022-09-24T16:49:01;0.47;;;0.30;;
66421;SDS011;53228;51.380;0.098;2022-09-24T16:51:29;0.28;;;0.22;;
66421;SDS011;53228;51.380;0.098;2022-09-24T16:53:57;0.57;;;0.20;;
66421;SDS011;53228;51.380;0.098;2022-09-24T16:56:24;0.10;;;0.10;;
66421;SDS011;53228;51.380;0.098;2022-09-24T16:58:52;1.08;;;0.35;;
66421;SDS011;53228;51.380;0.098;2022-09-24T17:01:20;0.20;;;0.20;;
66421;SDS011;53228;51.380;0.098;2022-09-24T17:03:55;0.73;;;0.40;;
66421;SDS011;53228;51.380;0.098;2022-09-24T17:06:28;0.25;;;0.25;;
66421;SDS011;53228;51.380;0.098;2022-09-24T17:08:56;0.28;;;0.13;;
66421;SDS011;53228;51.380;0.098;2022-09-24T17:11:42;0.60;;;0.38;;
66421;SDS011;53228;51.380;0.098;2022-09-24T17:14:12;0.40;;;0.30;;
66421;SDS011;53228;51.380;0.098;2022-09-24T17:16:42;0.50;;;0.28;;
66421;SDS011;53228;51.380;0.098;2022-09-24T17:19:10;2.33;;;0.40;;
66421;SDS011;53228;51.380;0.098;2022-09-24T17:21:39;4.00;;;0.40;;
66421;SDS011;53228;51.380;0.098;2022-09-24T17:24:08;5.30;;;0.50;;
66421;SDS011;53228;51.380;0.098;2022-09-24T17:26:37;1.08;;;0.30;;
66421;SDS011;53228;51.380;0.098;2022-09-24T17:29:05;1.77;;;0.47;;
66421;SDS011;53228;51.380;0.098;2022-09-24T17:31:33;0.95;;;0.40;;
66421;SDS011;53228;51.380;0.098;2022-09-24T17:34:03;1.55;;;0.68;;
66421;SDS011;53228;51.380;0.098;2022-09-24T17:36:33;1.85;;;1.25;;
66421;SDS011;53228;51.380;0.098;2022-09-24T17:39:01;3.05;;;1.95;;
66421;SDS011;53228;51.380;0.098;2022-09-24T17:41:29;3.38;;;1.50;;
66421;SDS011;53228;51.380;0.098;2022-09-24T17:43:57;3.13;;;1.70;;
66421;SDS011;53228;51.380;0.098;2022-09-24T17:46:26;3.22;;;1.00;;
66421;SDS011;53228;51.380;0.098;2022-09-24T17:48:56;0.98;;;0.88;;
66421;SDS011;53228;51.380;0.098;2022-09-24T17:51:26;1.48;;;0.82;;
66421;SDS011;53228;51.380;0.098;2022-09-24T17:53:59;2.97;;;1.10;;
66421;SDS011;53228;51.380;0.098;2022-09-24T17:56:30;1.27;;;0.75;;
66421;SDS011;53228;51.380;0.098;2022-09-24T17:58:59;2.97;;;0.80;;
66421;SDS011;53228;51.380;0.098;2022-09-24T18:01:27;3.15;;;0.70;;
66421;SDS011;53228;51.380;0.098;2022-09-24T18:03:59;3.17;;;2.08;;
66421;SDS011;53228;51.380;0.098;2022-09-24T18:06:27;4.82;;;0.73;;
66421;SDS011;53228;51.380;0.098;2022-09-24T18:08:59;1.85;;;0.63;;
66421;SDS011;53228;51.380;0.098;2022-09-24T18:11:32;2.50;;;0.93;;
66421;SDS011;53228;51.380;0.098;2022-09-24T18:14:03;0.90;;;0.70;;
66421;SDS011;53228;51.380;0.098;2022-09-24T18:16:31;0.40;;;0.40;;
66421;SDS011;53228;51.380;0.098;2022-09-24T18:19:00;1.58;;;0.73;;
66421;SDS011;53228;51.380;0.098;2022-09-24T18:21:29;3.53;;;0.80;;
66421;SDS011;53228;51.380;0.098;2022-09-24T18:23:57;5.13;;;0.82;;
66421;SDS011;53228;51.380;0.098;2022-09-24T18:26:27;1.17;;;0.80;;
66421;SDS011;53228;51.380;0.098;2022-09-24T18:28:59;2.45;;;0.80;;
66421;SDS011;53228;51.380;0.098;2022-09-24T18:31:47;0.82;;;0.52;;
66421;SDS011;53228;51.380;0.098;2022-09-24T18:34:17;4.25;;;0.73;;
66421;SDS011;53228;51.380;0.098;2022-09-24T18:36:45;1.30;;;0.63;;
66421;SDS011;53228;51.380;0.098;2022-09-24T18:39:13;8.60;;;2.40;;
66421;SDS011;53228;51.380;0.098;2022-09-24T18:41:50;7.45;;;1.70;;
66421;SDS011;53228;51.380;0.098;2022-09-24T18:44:18;2.53;;;1.30;;
66421;SDS011;53228;51.380;0.098;2022-09-24T18:46:46;5.35;;;1.05;;
66421;SDS011;53228;51.380;0.098;2022-09-24T18:49:13;3.00;;;0.50;;
66421;SDS011;53228;51.380;0.098;2022-09-24T18:51:41;5.95;;;1.10;;
66421;SDS011;53228;51.380;0.098;2022-09-24T18:54:12;0.90;;;0.70;;
66421;SDS011;53228;51.380;0.098;2022-09-24T18:56:40;1.88;;;0.70;;
66421;SDS011;53228;51.380;0.098;2022-09-24T18:59:10;2.30;;;0.82;;
66421;SDS011;53228;51.380;0.098;2022-09-24T19:01:42;0.95;;;0.70;;
66421;SDS011;53228;51.380;0.098;2022-09-24T19:04:12;2.10;;;0.60;;
66421;SDS011;53228;51.380;0.098;2022-09-24T19:06:41;1.27;;;0.60;;
66421;SDS011;53228;51.380;0.098;2022-09-24T19:09:11;1.00;;;0.45;;
66421;SDS011;53228;51.380;0.098;2022-09-24T19:11:40;0.52;;;0.50;;
66421;SDS011;53228;51.380;0.098;2022-09-24T19:14:08;1.55;;;0.60;;
66421;SDS011;53228;51.380;0.098;2022-09-24T19:16:39;3.22;;;0.73;;
66421;SDS011;53228;51.380;0.098;2022-09-24T19:19:07;2.40;;;0.50;;
66421;SDS011;53228;51.380;0.098;2022-09-24T19:21:36;2.78;;;0.88;;
66421;SDS011;53228;51.380;0.098;2022-09-24T19:24:04;0.95;;;0.70;;
66421;SDS011;53228;51.380;0.098;2022-09-24T19:26:33;2.35;;;0.70;;
66421;SDS011;53228;51.380;0.098;2022-09-24T19:29:02;1.85;;;1.30;;
66421;SDS011;53228;51.380;0.098;2022-09-24T19:31:31;1.27;;;0.77;;
66421;SDS011;53228;51.380;0.098;2022-09-24T19:34:05;2.63;;;0.90;;
66421;SDS011;53228;51.380;0.098;2022-09-24T19:36:34;6.20;;;0.85;;
66421;SDS011;53228;51.380;0.098;2022-09-24T19:39:12;4.80;;;1.40;;
66421;SDS011;53228;51.380;0.098;2022-09-24T19:44:09;2.05;;;0.50;;
66421;SDS011;53228;51.380;0.098;2022-09-24T19:46:38;1.95;;;0.60;;
66421;SDS011;53228;51.380;0.098;2022-09-24T19:49:07;9.82;;;0.98;;
66421;SDS011;53228;51.380;0.098;2022-09-24T19:51:35;1.63;;;0.70;;
66421;SDS011;53228;51.380;0.098;2022-09-24T19:54:03;2.58;;;0.55;;
66421;SDS011;53228;51.380;0.098;2022-09-24T19:56:33;2.15;;;0.63;;
66421;SDS011;53228;51.380;0.098;2022-09-24T19:59:02;1.30;;;0.60;;
66421;SDS011;53228;51.380;0.098;2022-09-24T20:01:31;3.28;;;0.60;;
66421;SDS011;53228;51.380;0.098;2022-09-24T20:04:01;2.47;;;0.65;;
66421;SDS011;53228;51.380;0.098;2022-09-24T20:06:30;1.85;;;0.60;;
66421;SDS011;53228;51.380;0.098;2022-09-24T20:08:59;3.17;;;0.60;;
66421;SDS011;53228;51.380;0.098;2022-09-24T20:11:27;3.58;;;0.73;;
66421;SDS011;53228;51.380;0.098;2022-09-24T20:13:59;3.58;;;0.95;;
66421;SDS011;53228;51.380;0.098;2022-09-24T20:16:27;0.52;;;0.52;;
66421;SDS011;53228;51.380;0.098;2022-09-24T20:18:59;2.85;;;0.73;;
66421;SDS011;53228;51.380;0.098;2022-09-24T20:21:28;3.60;;;0.68;;
66421;SDS011;53228;51.380;0.098;2022-09-24T20:23:59;3.22;;;0.90;;
66421;SDS011;53228;51.380;0.098;2022-09-24T20:26:29;2.97;;;0.80;;
66421;SDS011;53228;51.380;0.098;2022-09-24T20:29:17;5.93;;;0.77;;
66421;SDS011;53228;51.380;0.098;2022-09-24T20:31:49;1.65;;;0.55;;
66421;SDS011;53228;51.380;0.098;2022-09-24T20:37:03;4.80;;;0.60;;
66421;SDS011;53228;51.380;0.098;2022-09-24T20:39:31;4.82;;;0.73;;
66421;SDS011;53228;51.380;0.098;2022-09-24T20:41:59;2.33;;;0.70;;
66421;SDS011;53228;51.380;0.098;2022-09-24T20:44:30;2.67;;;0.75;;
66421;SDS011;53228;51.380;0.098;2022-09-24T20:46:58;2.35;;;0.75;;
66421;SDS011;53228;51.380;0.098;2022-09-24T20:49:27;1.25;;;0.85;;
66421;SDS011;53228;51.380;0.098;2022-09-24T20:51:55;3.72;;;0.88;;